sensor_id;sensor_type;location;lat;lon;timestamp;P1;durP1;ratioP1;P2;durP2;ratioP2
21554;SDS011;10938;44.794;-0.676;2023-05-23T00:00:54;7.20;;;6.53;;
21554;SDS011;10938;44.794;-0.676;2023-05-23T00:03:20;7.70;;;6.28;;
21554;SDS011;10938;44.794;-0.676;2023-05-23T00:05:47;7.65;;;6.05;;
21554;SDS011;10938;44.794;-0.676;2023-05-23T00:08:12;6.35;;;5.75;;
21554;SDS011;10938;44.794;-0.676;2023-05-23T00:10:37;6.97;;;6.28;;
21554;SDS011;10938;44.794;-0.676;2023-05-23T00:13:03;6.93;;;6.20;;
21554;SDS011;10938;44.794;-0.676;2023-05-23T00:15:40;7.43;;;6.63;;
21554;SDS011;10938;44.794;-0.676;2023-05-23T00:18:06;7.32;;;6.25;;
21554;SDS011;10938;44.794;-0.676;2023-05-23T00:20:33;7.82;;;7.00;;
21554;SDS011;10938;44.794;-0.676;2023-05-23T00:22:59;8.00;;;6.00;;
21554;SDS011;10938;44.794;-0.676;2023-05-23T00:25:24;8.23;;;6.87;;
21554;SDS011;10938;44.794;-0.676;2023-05-23T00:27:50;7.05;;;6.35;;
21554;SDS011;10938;44.794;-0.676;2023-05-23T00:30:15;9.68;;;7.15;;
21554;SDS011;10938;44.794;-0.676;2023-05-23T00:32:41;9.60;;;7.85;;
21554;SDS011;10938;44.794;-0.676;2023-05-23T00:35:06;12.00;;;9.68;;
21554;SDS011;10938;44.794;-0.676;2023-05-23T00:37:32;9.82;;;8.30;;
21554;SDS011;10938;44.794;-0.676;2023-05-23T00:39:58;9.73;;;7.85;;
21554;SDS011;10938;44.794;-0.676;2023-05-23T00:42:23;10.85;;;9.15;;
21554;SDS011;10938;44.794;-0.676;2023-05-23T00:44:48;10.05;;;9.05;;
21554;SDS011;10938;44.794;-0.676;2023-05-23T00:47:14;9.47;;;7.60;;
21554;SDS011;10938;44.794;-0.676;2023-05-23T00:49:39;11.38;;;10.18;;
21554;SDS011;10938;44.794;-0.676;2023-05-23T00:52:05;10.68;;;9.57;;
21554;SDS011;10938;44.794;-0.676;2023-05-23T00:54:30;11.18;;;9.35;;
21554;SDS011;10938;44.794;-0.676;2023-05-23T00:56:56;13.40;;;10.23;;
21554;SDS011;10938;44.794;-0.676;2023-05-23T00:59:22;14.88;;;11.02;;
21554;SDS011;10938;44.794;-0.676;2023-05-23T01:01:49;14.57;;;11.90;;
21554;SDS011;10938;44.794;-0.676;2023-05-23T01:04:14;23.20;;;13.57;;
21554;SDS011;10938;44.794;-0.676;2023-05-23T01:06:40;80.32;;;17.90;;
21554;SDS011;10938;44.794;-0.676;2023-05-23T01:09:07;106.80;;;33.22;;
21554;SDS011;10938;44.794;-0.676;2023-05-23T01:14:18;106.45;;;35.80;;
21554;SDS011;10938;44.794;-0.676;2023-05-23T01:16:47;66.50;;;32.75;;
21554;SDS011;10938;44.794;-0.676;2023-05-23T01:21:47;47.90;;;25.55;;
21554;SDS011;10938;44.794;-0.676;2023-05-23T01:27:02;50.83;;;29.13;;
21554;SDS011;10938;44.794;-0.676;2023-05-23T01:31:58;53.70;;;28.38;;
21554;SDS011;10938;44.794;-0.676;2023-05-23T01:34:24;147.68;;;43.13;;
21554;SDS011;10938;44.794;-0.676;2023-05-23T01:36:51;318.45;;;56.38;;
21554;SDS011;10938;44.794;-0.676;2023-05-23T01:39:18;227.85;;;41.92;;
21554;SDS011;10938;44.794;-0.676;2023-05-23T01:41:43;631.33;;;86.90;;
21554;SDS011;10938;44.794;-0.676;2023-05-23T01:44:08;556.57;;;77.87;;
21554;SDS011;10938;44.794;-0.676;2023-05-23T01:46:33;584.35;;;82.82;;
21554;SDS011;10938;44.794;-0.676;2023-05-23T01:49:00;319.40;;;61.65;;
21554;SDS011;10938;44.794;-0.676;2023-05-23T01:51:27;441.52;;;68.07;;
21554;SDS011;10938;44.794;-0.676;2023-05-23T01:53:53;201.18;;;55.47;;
21554;SDS011;10938;44.794;-0.676;2023-05-23T01:56:18;650.38;;;92.35;;
21554;SDS011;10938;44.794;-0.676;2023-05-23T01:58:45;944.58;;;106.57;;
21554;SDS011;10938;44.794;-0.676;2023-05-23T02:01:10;334.65;;;71.05;;
21554;SDS011;10938;44.794;-0.676;2023-05-23T02:03:36;679.67;;;98.55;;
21554;SDS011;10938;44.794;-0.676;2023-05-23T02:06:04;677.20;;;92.10;;
21554;SDS011;10938;44.794;-0.676;2023-05-23T02:08:29;80.18;;;42.30;;
21554;SDS011;10938;44.794;-0.676;2023-05-23T02:10:58;258.95;;;60.85;;
21554;SDS011;10938;44.794;-0.676;2023-05-23T02:13:23;66.22;;;40.88;;
21554;SDS011;10938;44.794;-0.676;2023-05-23T02:15:48;67.07;;;38.50;;
21554;SDS011;10938;44.794;-0.676;2023-05-23T02:18:13;41.63;;;30.83;;
21554;SDS011;10938;44.794;-0.676;2023-05-23T02:20:38;179.33;;;52.70;;
21554;SDS011;10938;44.794;-0.676;2023-05-23T02:23:04;66.25;;;38.70;;
21554;SDS011;10938;44.794;-0.676;2023-05-23T02:25:30;74.22;;;36.92;;
21554;SDS011;10938;44.794;-0.676;2023-05-23T02:27:55;59.40;;;36.17;;
21554;SDS011;10938;44.794;-0.676;2023-05-23T02:30:20;67.60;;;36.83;;
21554;SDS011;10938;44.794;-0.676;2023-05-23T02:32:46;37.50;;;28.17;;
21554;SDS011;10938;44.794;-0.676;2023-05-23T02:35:11;37.88;;;28.42;;
21554;SDS011;10938;44.794;-0.676;2023-05-23T02:37:37;61.78;;;37.63;;
21554;SDS011;10938;44.794;-0.676;2023-05-23T02:40:02;35.70;;;26.77;;
21554;SDS011;10938;44.794;-0.676;2023-05-23T02:42:28;33.63;;;24.77;;
21554;SDS011;10938;44.794;-0.676;2023-05-23T02:44:54;31.95;;;25.23;;
21554;SDS011;10938;44.794;-0.676;2023-05-23T02:47:19;48.58;;;30.15;;
21554;SDS011;10938;44.794;-0.676;2023-05-23T02:49:44;42.42;;;28.35;;
21554;SDS011;10938;44.794;-0.676;2023-05-23T02:52:10;50.57;;;32.50;;
21554;SDS011;10938;44.794;-0.676;2023-05-23T02:54:35;73.07;;;37.03;;
21554;SDS011;10938;44.794;-0.676;2023-05-23T02:57:00;88.57;;;33.42;;
21554;SDS011;10938;44.794;-0.676;2023-05-23T02:59:25;43.37;;;29.50;;
21554;SDS011;10938;44.794;-0.676;2023-05-23T03:01:51;72.57;;;36.95;;
21554;SDS011;10938;44.794;-0.676;2023-05-23T03:04:16;30.15;;;24.77;;
21554;SDS011;10938;44.794;-0.676;2023-05-23T03:06:42;39.22;;;28.00;;
21554;SDS011;10938;44.794;-0.676;2023-05-23T03:09:09;33.08;;;27.17;;
21554;SDS011;10938;44.794;-0.676;2023-05-23T03:11:34;45.45;;;30.67;;
21554;SDS011;10938;44.794;-0.676;2023-05-23T03:14:00;31.35;;;24.90;;
21554;SDS011;10938;44.794;-0.676;2023-05-23T03:16:25;32.20;;;24.17;;
21554;SDS011;10938;44.794;-0.676;2023-05-23T03:18:50;48.83;;;31.80;;
21554;SDS011;10938;44.794;-0.676;2023-05-23T03:21:15;38.27;;;28.60;;
21554;SDS011;10938;44.794;-0.676;2023-05-23T03:23:41;42.33;;;29.85;;
21554;SDS011;10938;44.794;-0.676;2023-05-23T03:26:06;36.37;;;27.10;;
21554;SDS011;10938;44.794;-0.676;2023-05-23T03:28:31;40.47;;;27.88;;
21554;SDS011;10938;44.794;-0.676;2023-05-23T03:30:57;47.57;;;28.83;;
21554;SDS011;10938;44.794;-0.676;2023-05-23T03:33:22;57.75;;;33.08;;
21554;SDS011;10938;44.794;-0.676;2023-05-23T03:35:47;68.43;;;33.22;;
21554;SDS011;10938;44.794;-0.676;2023-05-23T03:38:13;32.75;;;26.27;;
21554;SDS011;10938;44.794;-0.676;2023-05-23T03:40:42;30.13;;;23.65;;
21554;SDS011;10938;44.794;-0.676;2023-05-23T03:43:07;42.15;;;28.77;;
21554;SDS011;10938;44.794;-0.676;2023-05-23T03:45:32;30.73;;;24.37;;
21554;SDS011;10938;44.794;-0.676;2023-05-23T03:47:58;35.10;;;24.25;;
21554;SDS011;10938;44.794;-0.676;2023-05-23T03:50:23;39.90;;;27.85;;
21554;SDS011;10938;44.794;-0.676;2023-05-23T03:52:48;57.50;;;31.00;;
21554;SDS011;10938;44.794;-0.676;2023-05-23T03:55:14;34.03;;;26.57;;
21554;SDS011;10938;44.794;-0.676;2023-05-23T03:57:39;40.07;;;27.33;;
21554;SDS011;10938;44.794;-0.676;2023-05-23T04:00:04;34.50;;;26.92;;
21554;SDS011;10938;44.794;-0.676;2023-05-23T04:02:30;55.85;;;33.63;;
21554;SDS011;10938;44.794;-0.676;2023-05-23T04:04:56;37.08;;;26.92;;
21554;SDS011;10938;44.794;-0.676;2023-05-23T04:07:22;62.67;;;35.45;;
21554;SDS011;10938;44.794;-0.676;2023-05-23T04:09:47;28.92;;;24.25;;
21554;SDS011;10938;44.794;-0.676;2023-05-23T04:12:12;43.53;;;29.27;;
21554;SDS011;10938;44.794;-0.676;2023-05-23T04:14:37;44.05;;;29.52;;
21554;SDS011;10938;44.794;-0.676;2023-05-23T04:17:03;35.20;;;27.27;;
21554;SDS011;10938;44.794;-0.676;2023-05-23T04:19:29;33.03;;;23.38;;
21554;SDS011;10938;44.794;-0.676;2023-05-23T04:21:55;27.95;;;22.63;;
21554;SDS011;10938;44.794;-0.676;2023-05-23T04:24:20;45.97;;;31.38;;
21554;SDS011;10938;44.794;-0.676;2023-05-23T04:26:45;41.22;;;28.08;;
21554;SDS011;10938;44.794;-0.676;2023-05-23T04:29:11;29.83;;;24.25;;
21554;SDS011;10938;44.794;-0.676;2023-05-23T04:31:36;36.77;;;28.63;;
21554;SDS011;10938;44.794;-0.676;2023-05-23T04:34:02;29.35;;;23.35;;
21554;SDS011;10938;44.794;-0.676;2023-05-23T04:36:27;35.08;;;26.25;;
21554;SDS011;10938;44.794;-0.676;2023-05-23T04:38:54;39.72;;;26.88;;
21554;SDS011;10938;44.794;-0.676;2023-05-23T04:41:19;32.67;;;25.15;;
21554;SDS011;10938;44.794;-0.676;2023-05-23T04:43:47;31.15;;;23.63;;
21554;SDS011;10938;44.794;-0.676;2023-05-23T04:46:12;27.08;;;21.35;;
21554;SDS011;10938;44.794;-0.676;2023-05-23T04:48:38;37.97;;;26.37;;
21554;SDS011;10938;44.794;-0.676;2023-05-23T04:51:03;34.20;;;23.42;;
21554;SDS011;10938;44.794;-0.676;2023-05-23T04:53:35;37.10;;;26.77;;
21554;SDS011;10938;44.794;-0.676;2023-05-23T04:56:01;26.90;;;21.73;;
21554;SDS011;10938;44.794;-0.676;2023-05-23T04:58:26;28.45;;;21.77;;
21554;SDS011;10938;44.794;-0.676;2023-05-23T05:00:51;35.27;;;24.87;;
21554;SDS011;10938;44.794;-0.676;2023-05-23T05:03:17;31.00;;;23.83;;
21554;SDS011;10938;44.794;-0.676;2023-05-23T05:05:42;30.98;;;23.13;;
21554;SDS011;10938;44.794;-0.676;2023-05-23T05:08:07;28.07;;;23.37;;
21554;SDS011;10938;44.794;-0.676;2023-05-23T05:10:33;36.03;;;23.40;;
21554;SDS011;10938;44.794;-0.676;2023-05-23T05:13:01;27.33;;;22.38;;
21554;SDS011;10938;44.794;-0.676;2023-05-23T05:15:32;29.20;;;22.67;;
21554;SDS011;10938;44.794;-0.676;2023-05-23T05:17:58;25.40;;;21.13;;
21554;SDS011;10938;44.794;-0.676;2023-05-23T05:20:23;26.05;;;19.90;;
21554;SDS011;10938;44.794;-0.676;2023-05-23T05:22:53;25.60;;;19.92;;
21554;SDS011;10938;44.794;-0.676;2023-05-23T05:25:19;25.13;;;18.73;;
21554;SDS011;10938;44.794;-0.676;2023-05-23T05:27:45;28.25;;;21.73;;
21554;SDS011;10938;44.794;-0.676;2023-05-23T05:30:10;24.48;;;20.50;;
21554;SDS011;10938;44.794;-0.676;2023-05-23T05:32:36;22.08;;;18.40;;
21554;SDS011;10938;44.794;-0.676;2023-05-23T05:35:01;20.03;;;17.43;;
21554;SDS011;10938;44.794;-0.676;2023-05-23T05:37:27;25.90;;;18.23;;
21554;SDS011;10938;44.794;-0.676;2023-05-23T05:39:53;22.48;;;17.20;;
21554;SDS011;10938;44.794;-0.676;2023-05-23T05:42:19;23.67;;;16.95;;
21554;SDS011;10938;44.794;-0.676;2023-05-23T05:44:44;24.65;;;19.30;;
21554;SDS011;10938;44.794;-0.676;2023-05-23T05:47:10;27.05;;;19.85;;
21554;SDS011;10938;44.794;-0.676;2023-05-23T05:49:35;23.23;;;16.75;;
21554;SDS011;10938;44.794;-0.676;2023-05-23T05:52:00;30.33;;;21.40;;
21554;SDS011;10938;44.794;-0.676;2023-05-23T05:54:26;27.90;;;19.40;;
21554;SDS011;10938;44.794;-0.676;2023-05-23T05:56:51;24.17;;;19.43;;
21554;SDS011;10938;44.794;-0.676;2023-05-23T05:59:16;25.00;;;18.77;;
21554;SDS011;10938;44.794;-0.676;2023-05-23T06:01:42;24.88;;;18.98;;
21554;SDS011;10938;44.794;-0.676;2023-05-23T06:04:08;21.52;;;18.23;;
21554;SDS011;10938;44.794;-0.676;2023-05-23T06:06:34;26.25;;;17.90;;
21554;SDS011;10938;44.794;-0.676;2023-05-23T06:08:59;21.80;;;15.73;;
21554;SDS011;10938;44.794;-0.676;2023-05-23T06:11:24;27.50;;;18.33;;
21554;SDS011;10938;44.794;-0.676;2023-05-23T06:13:50;19.33;;;15.25;;
21554;SDS011;10938;44.794;-0.676;2023-05-23T06:16:16;22.33;;;15.07;;
21554;SDS011;10938;44.794;-0.676;2023-05-23T06:18:41;18.73;;;13.97;;
21554;SDS011;10938;44.794;-0.676;2023-05-23T06:21:06;18.40;;;13.77;;
21554;SDS011;10938;44.794;-0.676;2023-05-23T06:23:31;19.03;;;14.00;;
21554;SDS011;10938;44.794;-0.676;2023-05-23T06:25:57;16.27;;;14.00;;
21554;SDS011;10938;44.794;-0.676;2023-05-23T06:28:23;18.27;;;12.32;;
21554;SDS011;10938;44.794;-0.676;2023-05-23T06:30:49;19.30;;;12.90;;
21554;SDS011;10938;44.794;-0.676;2023-05-23T06:33:23;16.83;;;12.97;;
21554;SDS011;10938;44.794;-0.676;2023-05-23T06:35:48;19.60;;;12.65;;
21554;SDS011;10938;44.794;-0.676;2023-05-23T06:38:13;18.30;;;12.87;;
21554;SDS011;10938;44.794;-0.676;2023-05-23T06:40:39;16.50;;;12.60;;
21554;SDS011;10938;44.794;-0.676;2023-05-23T06:43:05;16.98;;;12.13;;
21554;SDS011;10938;44.794;-0.676;2023-05-23T06:45:30;17.67;;;12.77;;
21554;SDS011;10938;44.794;-0.676;2023-05-23T06:47:55;16.05;;;12.40;;
21554;SDS011;10938;44.794;-0.676;2023-05-23T06:50:21;18.92;;;13.35;;
21554;SDS011;10938;44.794;-0.676;2023-05-23T06:52:46;15.27;;;12.32;;
21554;SDS011;10938;44.794;-0.676;2023-05-23T06:55:11;16.23;;;12.70;;
21554;SDS011;10938;44.794;-0.676;2023-05-23T06:57:42;22.45;;;12.88;;
21554;SDS011;10938;44.794;-0.676;2023-05-23T07:00:07;17.65;;;12.68;;
21554;SDS011;10938;44.794;-0.676;2023-05-23T07:02:33;18.15;;;11.57;;
21554;SDS011;10938;44.794;-0.676;2023-05-23T07:04:58;13.87;;;11.93;;
21554;SDS011;10938;44.794;-0.676;2023-05-23T07:07:23;13.47;;;11.57;;
21554;SDS011;10938;44.794;-0.676;2023-05-23T07:09:49;14.77;;;12.70;;
21554;SDS011;10938;44.794;-0.676;2023-05-23T07:12:14;15.05;;;11.55;;
21554;SDS011;10938;44.794;-0.676;2023-05-23T07:14:39;14.73;;;11.57;;
21554;SDS011;10938;44.794;-0.676;2023-05-23T07:17:05;20.17;;;11.50;;
21554;SDS011;10938;44.794;-0.676;2023-05-23T07:19:30;15.45;;;11.73;;
21554;SDS011;10938;44.794;-0.676;2023-05-23T07:21:55;17.27;;;11.33;;
21554;SDS011;10938;44.794;-0.676;2023-05-23T07:24:21;15.90;;;10.47;;
21554;SDS011;10938;44.794;-0.676;2023-05-23T07:26:49;13.43;;;10.33;;
21554;SDS011;10938;44.794;-0.676;2023-05-23T07:29:14;15.32;;;10.73;;
21554;SDS011;10938;44.794;-0.676;2023-05-23T07:31:42;13.93;;;10.95;;
21554;SDS011;10938;44.794;-0.676;2023-05-23T07:34:07;13.50;;;10.20;;
21554;SDS011;10938;44.794;-0.676;2023-05-23T07:36:32;14.17;;;10.60;;
21554;SDS011;10938;44.794;-0.676;2023-05-23T07:38:59;12.10;;;9.57;;
21554;SDS011;10938;44.794;-0.676;2023-05-23T07:41:25;15.57;;;9.68;;
21554;SDS011;10938;44.794;-0.676;2023-05-23T07:43:50;12.65;;;8.75;;
21554;SDS011;10938;44.794;-0.676;2023-05-23T07:46:16;9.97;;;8.73;;
21554;SDS011;10938;44.794;-0.676;2023-05-23T07:48:41;14.73;;;9.57;;
21554;SDS011;10938;44.794;-0.676;2023-05-23T07:51:06;15.43;;;9.33;;
21554;SDS011;10938;44.794;-0.676;2023-05-23T07:53:31;10.67;;;8.13;;
21554;SDS011;10938;44.794;-0.676;2023-05-23T07:55:57;13.10;;;7.63;;
21554;SDS011;10938;44.794;-0.676;2023-05-23T07:58:22;9.13;;;7.67;;
21554;SDS011;10938;44.794;-0.676;2023-05-23T08:00:47;10.80;;;7.73;;
21554;SDS011;10938;44.794;-0.676;2023-05-23T08:03:13;10.38;;;7.45;;
21554;SDS011;10938;44.794;-0.676;2023-05-23T08:05:38;13.27;;;8.30;;
21554;SDS011;10938;44.794;-0.676;2023-05-23T08:08:03;8.80;;;7.73;;
21554;SDS011;10938;44.794;-0.676;2023-05-23T08:10:33;12.02;;;8.38;;
21554;SDS011;10938;44.794;-0.676;2023-05-23T08:12:59;11.20;;;8.70;;
21554;SDS011;10938;44.794;-0.676;2023-05-23T08:15:24;14.30;;;8.18;;
21554;SDS011;10938;44.794;-0.676;2023-05-23T08:17:50;8.88;;;7.95;;
21554;SDS011;10938;44.794;-0.676;2023-05-23T08:20:15;10.48;;;8.60;;
21554;SDS011;10938;44.794;-0.676;2023-05-23T08:22:41;10.63;;;8.20;;
21554;SDS011;10938;44.794;-0.676;2023-05-23T08:25:06;13.10;;;9.07;;
21554;SDS011;10938;44.794;-0.676;2023-05-23T08:27:32;15.45;;;9.32;;
21554;SDS011;10938;44.794;-0.676;2023-05-23T08:29:59;19.08;;;9.50;;
21554;SDS011;10938;44.794;-0.676;2023-05-23T08:32:24;11.53;;;8.70;;
21554;SDS011;10938;44.794;-0.676;2023-05-23T08:34:50;9.60;;;8.27;;
21554;SDS011;10938;44.794;-0.676;2023-05-23T08:37:15;15.90;;;8.67;;
21554;SDS011;10938;44.794;-0.676;2023-05-23T08:39:40;10.10;;;8.20;;
21554;SDS011;10938;44.794;-0.676;2023-05-23T08:42:06;16.30;;;9.17;;
21554;SDS011;10938;44.794;-0.676;2023-05-23T08:44:31;10.57;;;7.93;;
21554;SDS011;10938;44.794;-0.676;2023-05-23T08:46:57;15.73;;;9.23;;
21554;SDS011;10938;44.794;-0.676;2023-05-23T08:49:24;11.68;;;9.00;;
21554;SDS011;10938;44.794;-0.676;2023-05-23T08:51:50;12.00;;;8.57;;
21554;SDS011;10938;44.794;-0.676;2023-05-23T08:54:16;13.25;;;8.82;;
21554;SDS011;10938;44.794;-0.676;2023-05-23T08:56:42;10.60;;;7.47;;
21554;SDS011;10938;44.794;-0.676;2023-05-23T08:59:08;14.98;;;9.07;;
21554;SDS011;10938;44.794;-0.676;2023-05-23T09:01:33;11.80;;;9.05;;
21554;SDS011;10938;44.794;-0.676;2023-05-23T09:03:59;10.32;;;8.32;;
21554;SDS011;10938;44.794;-0.676;2023-05-23T09:06:29;12.05;;;8.20;;
21554;SDS011;10938;44.794;-0.676;2023-05-23T09:08:55;12.38;;;9.05;;
21554;SDS011;10938;44.794;-0.676;2023-05-23T09:11:26;13.38;;;9.00;;
21554;SDS011;10938;44.794;-0.676;2023-05-23T09:13:52;12.43;;;8.07;;
21554;SDS011;10938;44.794;-0.676;2023-05-23T09:16:17;9.05;;;7.97;;
21554;SDS011;10938;44.794;-0.676;2023-05-23T09:18:45;14.98;;;8.40;;
21554;SDS011;10938;44.794;-0.676;2023-05-23T09:21:12;12.35;;;8.30;;
21554;SDS011;10938;44.794;-0.676;2023-05-23T09:23:38;13.50;;;8.77;;
21554;SDS011;10938;44.794;-0.676;2023-05-23T09:26:06;13.07;;;8.40;;
21554;SDS011;10938;44.794;-0.676;2023-05-23T09:28:32;14.65;;;9.25;;
21554;SDS011;10938;44.794;-0.676;2023-05-23T09:31:04;11.70;;;9.18;;
21554;SDS011;10938;44.794;-0.676;2023-05-23T09:35:59;9.65;;;8.02;;
21554;SDS011;10938;44.794;-0.676;2023-05-23T09:38:25;9.75;;;7.60;;
21554;SDS011;10938;44.794;-0.676;2023-05-23T09:40:50;9.90;;;7.80;;
21554;SDS011;10938;44.794;-0.676;2023-05-23T09:43:20;11.80;;;9.32;;
21554;SDS011;10938;44.794;-0.676;2023-05-23T09:45:45;10.27;;;7.78;;
21554;SDS011;10938;44.794;-0.676;2023-05-23T09:48:11;11.23;;;8.18;;
21554;SDS011;10938;44.794;-0.676;2023-05-23T09:50:38;10.93;;;8.23;;
21554;SDS011;10938;44.794;-0.676;2023-05-23T09:53:03;11.40;;;7.63;;
21554;SDS011;10938;44.794;-0.676;2023-05-23T09:55:28;11.57;;;8.70;;
21554;SDS011;10938;44.794;-0.676;2023-05-23T09:57:54;11.68;;;8.38;;
21554;SDS011;10938;44.794;-0.676;2023-05-23T10:00:22;9.65;;;6.80;;
21554;SDS011;10938;44.794;-0.676;2023-05-23T10:07:48;13.02;;;8.32;;
21554;SDS011;10938;44.794;-0.676;2023-05-23T10:10:14;9.18;;;6.85;;
21554;SDS011;10938;44.794;-0.676;2023-05-23T10:12:46;14.10;;;8.82;;
21554;SDS011;10938;44.794;-0.676;2023-05-23T10:15:14;10.15;;;7.68;;
21554;SDS011;10938;44.794;-0.676;2023-05-23T10:17:45;10.05;;;8.20;;
21554;SDS011;10938;44.794;-0.676;2023-05-23T10:20:15;11.25;;;8.30;;
21554;SDS011;10938;44.794;-0.676;2023-05-23T10:22:40;7.15;;;6.22;;
21554;SDS011;10938;44.794;-0.676;2023-05-23T10:25:06;9.02;;;7.88;;
21554;SDS011;10938;44.794;-0.676;2023-05-23T10:27:38;9.80;;;7.60;;
21554;SDS011;10938;44.794;-0.676;2023-05-23T10:30:03;9.55;;;7.20;;
21554;SDS011;10938;44.794;-0.676;2023-05-23T10:32:29;11.73;;;9.13;;
21554;SDS011;10938;44.794;-0.676;2023-05-23T10:37:26;9.68;;;7.53;;
21554;SDS011;10938;44.794;-0.676;2023-05-23T10:39:56;13.05;;;8.75;;
21554;SDS011;10938;44.794;-0.676;2023-05-23T10:44:51;11.43;;;8.23;;
21554;SDS011;10938;44.794;-0.676;2023-05-23T10:47:24;7.90;;;7.10;;
21554;SDS011;10938;44.794;-0.676;2023-05-23T10:49:53;10.98;;;9.07;;
21554;SDS011;10938;44.794;-0.676;2023-05-23T10:52:18;11.23;;;8.55;;
21554;SDS011;10938;44.794;-0.676;2023-05-23T10:54:45;13.65;;;8.95;;
21554;SDS011;10938;44.794;-0.676;2023-05-23T10:57:14;8.48;;;7.47;;
21554;SDS011;10938;44.794;-0.676;2023-05-23T10:59:40;11.75;;;8.75;;
21554;SDS011;10938;44.794;-0.676;2023-05-23T11:02:08;13.23;;;9.38;;
21554;SDS011;10938;44.794;-0.676;2023-05-23T11:04:36;13.95;;;9.60;;
21554;SDS011;10938;44.794;-0.676;2023-05-23T11:07:01;11.67;;;7.40;;
21554;SDS011;10938;44.794;-0.676;2023-05-23T11:09:26;13.20;;;8.30;;
21554;SDS011;10938;44.794;-0.676;2023-05-23T11:16:58;9.75;;;7.90;;
21554;SDS011;10938;44.794;-0.676;2023-05-23T11:21:53;9.07;;;6.80;;
21554;SDS011;10938;44.794;-0.676;2023-05-23T11:24:19;10.88;;;6.97;;
21554;SDS011;10938;44.794;-0.676;2023-05-23T11:26:54;10.27;;;7.90;;
21554;SDS011;10938;44.794;-0.676;2023-05-23T11:29:23;12.73;;;7.78;;
21554;SDS011;10938;44.794;-0.676;2023-05-23T11:31:50;11.77;;;8.48;;
21554;SDS011;10938;44.794;-0.676;2023-05-23T11:34:16;12.57;;;8.97;;
21554;SDS011;10938;44.794;-0.676;2023-05-23T11:36:41;11.32;;;7.55;;
21554;SDS011;10938;44.794;-0.676;2023-05-23T11:39:07;11.23;;;8.27;;
21554;SDS011;10938;44.794;-0.676;2023-05-23T11:41:33;13.05;;;10.20;;
21554;SDS011;10938;44.794;-0.676;2023-05-23T11:43:59;13.93;;;9.88;;
21554;SDS011;10938;44.794;-0.676;2023-05-23T11:46:26;11.40;;;9.07;;
21554;SDS011;10938;44.794;-0.676;2023-05-23T11:48:54;14.77;;;10.30;;
21554;SDS011;10938;44.794;-0.676;2023-05-23T11:51:19;10.30;;;9.00;;
21554;SDS011;10938;44.794;-0.676;2023-05-23T11:53:46;13.40;;;9.80;;
21554;SDS011;10938;44.794;-0.676;2023-05-23T11:56:11;11.32;;;9.52;;
21554;SDS011;10938;44.794;-0.676;2023-05-23T11:58:38;12.95;;;9.55;;
21554;SDS011;10938;44.794;-0.676;2023-05-23T12:01:08;17.48;;;9.20;;
21554;SDS011;10938;44.794;-0.676;2023-05-23T12:03:34;15.68;;;9.77;;
21554;SDS011;10938;44.794;-0.676;2023-05-23T12:06:08;12.80;;;10.20;;
21554;SDS011;10938;44.794;-0.676;2023-05-23T12:08:33;14.00;;;10.50;;
21554;SDS011;10938;44.794;-0.676;2023-05-23T12:10:59;13.05;;;9.65;;
21554;SDS011;10938;44.794;-0.676;2023-05-23T12:13:27;14.05;;;10.18;;
21554;SDS011;10938;44.794;-0.676;2023-05-23T12:15:53;13.95;;;8.88;;
21554;SDS011;10938;44.794;-0.676;2023-05-23T12:18:19;12.65;;;9.90;;
21554;SDS011;10938;44.794;-0.676;2023-05-23T12:20:45;13.98;;;10.18;;
21554;SDS011;10938;44.794;-0.676;2023-05-23T12:23:21;13.75;;;9.70;;
21554;SDS011;10938;44.794;-0.676;2023-05-23T12:25:54;15.90;;;10.13;;
21554;SDS011;10938;44.794;-0.676;2023-05-23T12:28:20;11.88;;;9.70;;
21554;SDS011;10938;44.794;-0.676;2023-05-23T12:30:46;12.98;;;9.23;;
21554;SDS011;10938;44.794;-0.676;2023-05-23T12:33:11;13.48;;;9.35;;
21554;SDS011;10938;44.794;-0.676;2023-05-23T12:35:36;10.90;;;8.35;;
21554;SDS011;10938;44.794;-0.676;2023-05-23T12:38:04;10.73;;;9.38;;
21554;SDS011;10938;44.794;-0.676;2023-05-23T12:40:31;10.73;;;9.43;;
21554;SDS011;10938;44.794;-0.676;2023-05-23T12:42:56;14.57;;;8.80;;
21554;SDS011;10938;44.794;-0.676;2023-05-23T12:45:25;11.00;;;9.57;;
21554;SDS011;10938;44.794;-0.676;2023-05-23T12:47:54;13.02;;;8.73;;
21554;SDS011;10938;44.794;-0.676;2023-05-23T12:50:20;11.67;;;9.40;;
21554;SDS011;10938;44.794;-0.676;2023-05-23T12:52:45;12.50;;;8.65;;
21554;SDS011;10938;44.794;-0.676;2023-05-23T12:55:11;13.53;;;9.60;;
21554;SDS011;10938;44.794;-0.676;2023-05-23T12:57:37;12.70;;;8.45;;
21554;SDS011;10938;44.794;-0.676;2023-05-23T13:00:02;14.90;;;10.45;;
21554;SDS011;10938;44.794;-0.676;2023-05-23T13:02:28;12.70;;;9.98;;
21554;SDS011;10938;44.794;-0.676;2023-05-23T13:04:54;17.20;;;10.15;;
21554;SDS011;10938;44.794;-0.676;2023-05-23T13:07:20;13.27;;;9.30;;
21554;SDS011;10938;44.794;-0.676;2023-05-23T13:09:45;13.65;;;9.73;;
21554;SDS011;10938;44.794;-0.676;2023-05-23T13:12:11;13.07;;;9.20;;
21554;SDS011;10938;44.794;-0.676;2023-05-23T13:14:36;14.80;;;10.07;;
21554;SDS011;10938;44.794;-0.676;2023-05-23T13:17:05;10.48;;;8.90;;
21554;SDS011;10938;44.794;-0.676;2023-05-23T13:19:30;14.80;;;9.02;;
21554;SDS011;10938;44.794;-0.676;2023-05-23T13:21:56;15.00;;;9.53;;
21554;SDS011;10938;44.794;-0.676;2023-05-23T13:24:21;10.15;;;8.93;;
21554;SDS011;10938;44.794;-0.676;2023-05-23T13:26:47;12.60;;;9.30;;
21554;SDS011;10938;44.794;-0.676;2023-05-23T13:29:12;15.63;;;9.57;;
21554;SDS011;10938;44.794;-0.676;2023-05-23T13:31:37;12.15;;;9.50;;
21554;SDS011;10938;44.794;-0.676;2023-05-23T13:34:03;11.60;;;8.90;;
21554;SDS011;10938;44.794;-0.676;2023-05-23T13:36:28;12.63;;;9.57;;
21554;SDS011;10938;44.794;-0.676;2023-05-23T13:38:53;12.98;;;9.15;;
21554;SDS011;10938;44.794;-0.676;2023-05-23T13:41:19;11.57;;;9.55;;
21554;SDS011;10938;44.794;-0.676;2023-05-23T13:43:44;11.63;;;8.43;;
21554;SDS011;10938;44.794;-0.676;2023-05-23T13:46:10;12.13;;;8.80;;
21554;SDS011;10938;44.794;-0.676;2023-05-23T13:48:36;14.43;;;10.00;;
21554;SDS011;10938;44.794;-0.676;2023-05-23T13:51:02;14.27;;;10.03;;
21554;SDS011;10938;44.794;-0.676;2023-05-23T13:53:27;14.00;;;9.55;;
21554;SDS011;10938;44.794;-0.676;2023-05-23T13:55:53;12.77;;;9.43;;
21554;SDS011;10938;44.794;-0.676;2023-05-23T13:58:18;11.35;;;8.90;;
21554;SDS011;10938;44.794;-0.676;2023-05-23T14:00:44;14.35;;;8.95;;
21554;SDS011;10938;44.794;-0.676;2023-05-23T14:03:10;13.90;;;8.30;;
21554;SDS011;10938;44.794;-0.676;2023-05-23T14:05:36;10.32;;;8.90;;
21554;SDS011;10938;44.794;-0.676;2023-05-23T14:08:01;11.17;;;8.43;;
21554;SDS011;10938;44.794;-0.676;2023-05-23T14:10:27;11.07;;;8.55;;
21554;SDS011;10938;44.794;-0.676;2023-05-23T14:12:53;14.50;;;8.43;;
21554;SDS011;10938;44.794;-0.676;2023-05-23T14:15:18;12.50;;;8.82;;
21554;SDS011;10938;44.794;-0.676;2023-05-23T14:17:44;9.90;;;8.40;;
21554;SDS011;10938;44.794;-0.676;2023-05-23T14:20:09;12.18;;;8.90;;
21554;SDS011;10938;44.794;-0.676;2023-05-23T14:22:35;12.32;;;9.52;;
21554;SDS011;10938;44.794;-0.676;2023-05-23T14:25:00;13.32;;;9.27;;
21554;SDS011;10938;44.794;-0.676;2023-05-23T14:27:25;12.07;;;9.67;;
21554;SDS011;10938;44.794;-0.676;2023-05-23T14:29:51;13.40;;;9.63;;
21554;SDS011;10938;44.794;-0.676;2023-05-23T14:32:19;10.32;;;8.93;;
21554;SDS011;10938;44.794;-0.676;2023-05-23T14:34:44;11.80;;;9.10;;
21554;SDS011;10938;44.794;-0.676;2023-05-23T14:37:09;13.70;;;9.67;;
21554;SDS011;10938;44.794;-0.676;2023-05-23T14:39:34;14.73;;;9.63;;